Saint Thomas, Canada
Current Conditions -  °F | °C
As of 10:00 PM on Saturday 25 Oct 2014 (Local Time) from CYXU Reporting Station
Few Clouds Few Clouds  
Wind Chill: 50°   Ceiling: Unl
Heat Index: 50°   Visibility: 15mi
Dew Point: 41°   Wind: 9mph
Humidity: 71%   Direction: 300°WNW
Pressure: 29.73"   Gusts: NA
Location:  42.78°N, 81.18°W
Report Text: CYXU 260200Z 30008KT 15SM FEW069 10/05 A2973 RMK AC1 SLP069
Loading
Personal Weather Stations






























Interactive Weather Map
Tropical Storm Tracking
New forecast layout! Learn more

10-Day Weather Forecast

Advertisements
Track Severe Weather on mobile